Terminal Aerodrome Forecast
Issued by NWS Nashville, TN

Home | Current Version | Previous Version | Text Only | Print | Product List | Glossary On
Versions: 1 2 3 4 5 6 7 8 9 10 11 12 13 14 15 16 17 18 19 20 21 22 23 24 25 26 27 28 29
000
FTUS44 KOHX 291700 RRA
TAFBNA
TAF
KBNA 291743Z 2918/3018 18010KT P6SM VCSH SCT020 BKN050
     FM292100 17010KT P6SM VCSH BKN035 OVC070
     FM300000 17007KT P6SM OVC080
      TEMPO 3008/3012 5SM BR
     FM301400 19012KT P6SM VCTS BKN030CB BKN080=

USA.gov is the U.S. government's official web portal to all federal, state and local government web resources and services.